Time;durP1;ratioP1;P1;durP2;ratioP2;P2;SDS_P1;SDS_P2;PMS_P1;PMS_P2;Temp;Humidity;BMP_temperature;BMP_pressure;BME280_temperature;BME280_humidity;BME280_pressure;Samples;Min_cycle;Max_cycle;Signal;HPM_P1;HPM_P2
2024/03/12 00:01:26;;;;;;;13.27;4.15;;;;;;;33.12;24.21;99286.50;7393602;19;20019;-84
2024/03/12 00:03:54;;;;;;;12.15;5.45;;;;;;;33.38;24.42;99284.91;7390007;19;20025;-84
2024/03/12 00:06:21;;;;;;;14.43;5.90;;;;;;;33.59;24.08;99275.81;7393110;19;20010;-84
2024/03/12 00:08:48;;;;;;;11.05;4.20;;;;;;;33.62;23.88;99271.63;7391627;19;20018;-84
2024/03/12 00:11:14;;;;;;;7.75;3.55;;;;;;;33.63;23.96;99279.63;7390979;19;20014;-83
2024/03/12 00:13:40;;;;;;;8.30;4.00;;;;;;;33.84;23.67;99272.63;7391877;19;20011;-84
2024/03/12 00:16:07;;;;;;;9.40;3.72;;;;;;;33.81;23.66;99268.16;7389813;19;20011;-84
2024/03/12 00:18:33;;;;;;;11.57;4.45;;;;;;;33.63;23.73;99273.13;7389610;19;20014;-84
2024/03/12 00:21:01;;;;;;;13.00;3.42;;;;;;;33.49;23.90;99278.19;7389417;19;20378;-84
2024/03/12 00:23:28;;;;;;;12.70;3.95;;;;;;;33.18;24.01;99278.19;7390800;19;20439;-84
2024/03/12 00:25:56;;;;;;;10.13;4.05;;;;;;;32.78;24.63;99280.53;7390922;19;20018;-84
2024/03/12 00:28:23;;;;;;;7.78;3.03;;;;;;;32.73;24.25;99272.31;7388403;19;20010;-83
2024/03/12 00:30:49;;;;;;;7.55;2.88;;;;;;;32.69;24.04;99281.53;7388649;19;20486;-84
2024/03/12 00:33:15;;;;;;;13.57;2.78;;;;;;;32.67;24.49;99264.13;7388982;19;20014;-83
2024/03/12 00:35:43;;;;;;;13.90;4.00;;;;;;;32.57;24.24;99271.53;7388207;19;20018;-83
2024/03/12 00:38:10;;;;;;;5.90;3.00;;;;;;;32.49;24.48;99268.22;7391390;19;20043;-83
2024/03/12 00:40:36;;;;;;;3.13;2.42;;;;;;;32.54;24.58;99259.13;7389682;19;20020;-84
2024/03/12 00:43:05;;;;;;;3.53;2.97;;;;;;;32.50;24.71;99263.94;7390630;19;20083;-84
2024/03/12 00:45:38;;;;;;;9.45;2.72;;;;;;;32.75;24.37;99255.13;7383475;19;20353;-82
2024/03/12 00:48:05;;;;;;;14.88;5.28;;;;;;;32.57;24.29;99254.22;7387935;19;20406;-83
2024/03/12 00:50:35;;;;;;;8.07;2.92;;;;;;;32.61;24.20;99249.41;7388324;19;20038;-83
2024/03/12 00:53:02;;;;;;;6.72;3.50;;;;;;;32.50;24.38;99253.16;7388394;19;20349;-84
2024/03/12 00:55:29;;;;;;;14.27;4.55;;;;;;;32.16;24.50;99242.75;7388352;19;20002;-85
2024/03/12 00:57:56;;;;;;;7.25;2.80;;;;;;;31.60;25.15;99245.50;7387355;19;20014;-83
2024/03/12 01:00:34;;;;;;;3.35;2.50;;;;;;;31.49;25.26;99246.34;7385532;19;20014;-84
2024/03/12 01:03:01;;;;;;;23.58;3.72;;;;;;;30.69;25.96;99243.22;7387931;19;20015;-84
2024/03/12 01:05:32;;;;;;;6.50;3.30;;;;;;;30.48;26.13;99243.44;7385576;19;20579;-83
2024/03/12 01:07:59;;;;;;;11.57;4.30;;;;;;;31.26;25.40;99236.44;7387912;19;20130;-83
2024/03/12 01:10:27;;;;;;;4.68;2.13;;;;;;;31.28;25.43;99233.69;7385638;19;20019;-83
2024/03/12 01:12:55;;;;;;;5.45;3.17;;;;;;;31.38;25.57;99234.22;7388507;19;20010;-82
2024/03/12 01:15:26;;;;;;;10.02;3.25;;;;;;;31.17;25.53;99234.50;7387480;19;20050;-82
2024/03/12 01:17:53;;;;;;;3.00;2.80;;;;;;;31.80;25.46;99235.03;7388836;19;20036;-83
2024/03/12 01:20:21;;;;;;;7.43;3.13;;;;;;;31.49;25.63;99234.81;7389430;19;20503;-83
2024/03/12 01:22:50;;;;;;;12.13;3.42;;;;;;;31.24;25.40;99227.69;7387040;19;20082;-83
2024/03/12 01:25:16;;;;;;;5.18;1.92;;;;;;;31.23;25.92;99231.94;7392653;19;20019;-83
2024/03/12 01:27:42;;;;;;;9.45;3.35;;;;;;;31.30;25.80;99236.66;7391264;19;20011;-82
2024/03/12 01:30:16;;;;;;;10.00;2.33;;;;;;;31.38;25.68;99228.47;7396581;19;20017;-80
2024/03/12 01:32:44;;;;;;;12.25;2.33;;;;;;;31.17;25.92;99223.00;7390427;19;20394;-80
2024/03/12 01:35:14;;;;;;;8.80;2.95;;;;;;;30.77;26.17;99217.81;7392770;19;20018;-83
2024/03/12 01:37:43;;;;;;;7.88;3.15;;;;;;;31.23;25.98;99219.72;7395230;19;20134;-82
2024/03/12 01:40:19;;;;;;;14.60;3.35;;;;;;;31.59;25.92;99215.19;7393788;19;20509;-82
2024/03/12 01:42:48;;;;;;;8.30;3.85;;;;;;;31.49;25.44;99223.31;7393346;19;20360;-82
2024/03/12 01:45:17;;;;;;;7.93;3.58;;;;;;;32.86;24.80;99211.69;7389886;19;20018;-82
2024/03/12 01:47:45;;;;;;;7.15;2.53;;;;;;;33.28;24.61;99215.13;7390113;19;20015;-82
2024/03/12 01:50:12;;;;;;;12.43;2.90;;;;;;;33.48;24.46;99204.53;7391915;19;20018;-82
2024/03/12 01:52:38;;;;;;;7.85;3.28;;;;;;;33.51;24.43;99206.13;7392289;19;20011;-82
2024/03/12 01:55:05;;;;;;;10.27;4.68;;;;;;;33.64;24.35;99205.28;7387320;19;20026;-82
2024/03/12 01:57:32;;;;;;;21.30;2.70;;;;;;;33.69;24.27;99204.06;7390854;19;20026;-82
2024/03/12 01:59:58;;;;;;;21.13;5.32;;;;;;;33.57;24.28;99198.47;7392331;19;20014;-82
2024/03/12 02:02:25;;;;;;;10.52;3.20;;;;;;;33.68;24.29;99205.44;7394044;19;20341;-82
2024/03/12 02:04:52;;;;;;;9.93;3.17;;;;;;;33.38;24.13;99195.38;7391704;19;20022;-82
2024/03/12 02:07:18;;;;;;;7.07;2.75;;;;;;;32.53;25.01;99199.97;7391286;19;20038;-82
2024/03/12 02:09:44;;;;;;;9.77;3.92;;;;;;;31.93;25.33;99197.59;7395205;19;20109;-82
2024/03/12 02:12:11;;;;;;;11.88;3.33;;;;;;;32.05;25.67;99191.75;7393139;19;20014;-82
2024/03/12 02:14:37;;;;;;;8.15;3.55;;;;;;;31.08;26.44;99197.28;7391499;19;20018;-82
2024/03/12 02:17:05;;;;;;;4.38;2.63;;;;;;;31.45;26.02;99188.53;7397113;19;20032;-82
2024/03/12 02:19:33;;;;;;;6.57;3.15;;;;;;;31.59;25.83;99186.41;7392786;19;20041;-82
2024/03/12 02:22:00;;;;;;;10.63;2.40;;;;;;;31.85;25.70;99184.91;7394756;19;20029;-82
2024/03/12 02:24:26;;;;;;;4.60;2.30;;;;;;;32.21;25.37;99181.03;7393445;19;20018;-83
2024/03/12 02:26:53;;;;;;;10.48;3.95;;;;;;;32.01;25.30;99172.09;7393173;19;20022;-82
2024/03/12 02:29:19;;;;;;;5.30;3.03;;;;;;;31.96;25.83;99166.78;7392604;19;20018;-82
2024/03/12 02:31:46;;;;;;;19.83;4.93;;;;;;;31.96;25.59;99167.53;7391749;19;20017;-82
2024/03/12 02:34:12;;;;;;;8.77;2.95;;;;;;;31.93;25.57;99163.03;7391398;19;20027;-82
2024/03/12 02:36:40;;;;;;;11.48;4.30;;;;;;;31.68;25.82;99153.78;7391719;19;20509;-82
2024/03/12 02:39:07;;;;;;;7.75;3.83;;;;;;;32.05;25.55;99151.41;7394014;19;20014;-82
2024/03/12 02:41:34;;;;;;;4.43;3.17;;;;;;;31.23;26.29;99151.38;7396717;19;20015;-82
2024/03/12 02:44:00;;;;;;;23.52;5.07;;;;;;;30.63;26.46;99150.88;7392957;19;20031;-82
2024/03/12 02:46:27;;;;;;;14.45;3.63;;;;;;;31.84;25.53;99148.84;7394496;19;20015;-82
2024/03/12 02:48:53;;;;;;;2.63;1.83;;;;;;;31.82;25.68;99137.97;7391523;19;20026;-82
2024/03/12 02:51:19;;;;;;;8.90;2.78;;;;;;;30.50;26.99;99142.97;7394106;19;20017;-82
2024/03/12 02:53:45;;;;;;;5.10;2.78;;;;;;;30.28;26.94;99141.66;7390366;19;20063;-82
2024/03/12 02:56:12;;;;;;;12.95;3.33;;;;;;;31.02;26.47;99131.53;7391848;19;20050;-81
2024/03/12 02:58:38;;;;;;;12.38;3.92;;;;;;;31.57;25.96;99137.34;7390719;19;20275;-81
2024/03/12 03:01:04;;;;;;;15.75;4.90;;;;;;;30.32;26.66;99131.16;7395988;19;20488;-82
2024/03/12 03:03:31;;;;;;;13.90;5.35;;;;;;;30.10;27.40;99123.38;7391292;19;20309;-82
2024/03/12 03:05:57;;;;;;;21.02;5.68;;;;;;;30.16;27.26;99112.22;7393125;19;20082;-82
2024/03/12 03:08:23;;;;;;;8.27;4.28;;;;;;;30.33;26.74;99114.69;7391652;19;20014;-82
2024/03/12 03:10:49;;;;;;;5.45;2.22;;;;;;;30.36;27.08;99113.44;7391954;19;20602;-82
2024/03/12 03:13:15;;;;;;;14.73;3.85;;;;;;;30.37;26.85;99114.91;7390513;19;20038;-82
2024/03/12 03:15:41;;;;;;;13.75;3.10;;;;;;;30.37;26.84;99109.16;7392002;19;20025;-83
2024/03/12 03:18:07;;;;;;;6.75;2.88;;;;;;;30.20;27.22;99106.72;7390078;19;20400;-83
2024/03/12 03:20:33;;;;;;;6.45;3.30;;;;;;;30.15;27.14;99093.53;7391492;19;20022;-83
2024/03/12 03:22:59;;;;;;;4.10;3.10;;;;;;;30.07;27.14;99079.44;7391069;19;20022;-84
2024/03/12 03:25:26;;;;;;;18.77;4.32;;;;;;;29.91;27.40;99076.38;7389110;19;20011;-85
2024/03/12 03:27:52;;;;;;;3.35;2.38;;;;;;;29.62;27.38;99073.19;7389936;19;20018;-84
2024/03/12 03:30:18;;;;;;;2.85;2.40;;;;;;;30.10;27.49;99074.56;7392693;19;20018;-84
2024/03/12 03:32:44;;;;;;;8.45;2.70;;;;;;;30.28;27.08;99072.69;7391193;19;20018;-84
2024/03/12 03:35:11;;;;;;;7.35;3.15;;;;;;;30.50;27.04;99065.34;7388889;19;20035;-84
2024/03/12 03:37:40;;;;;;;4.40;2.78;;;;;;;30.41;27.05;99069.16;7389321;19;20022;-84
2024/03/12 03:40:10;;;;;;;19.20;5.85;;;;;;;30.52;26.96;99062.59;7391134;19;20022;-83
2024/03/12 03:42:37;;;;;;;7.55;3.85;;;;;;;30.54;27.25;99059.81;7390860;19;20472;-83
2024/03/12 03:45:04;;;;;;;13.95;5.05;;;;;;;30.72;27.22;99057.97;7392389;19;20029;-83
2024/03/12 03:47:34;;;;;;;5.20;2.05;;;;;;;30.52;27.09;99051.09;7391930;19;20480;-83
2024/03/12 03:50:07;;;;;;;13.52;4.50;;;;;;;30.28;27.02;99052.59;7392892;19;20085;-83
2024/03/12 03:52:34;;;;;;;3.38;2.95;;;;;;;30.45;27.16;99052.16;7386310;19;20090;-83
2024/03/12 03:55:01;;;;;;;4.82;3.33;;;;;;;30.32;27.17;99044.97;7384828;19;20022;-83
2024/03/12 03:57:27;;;;;;;11.65;4.22;;;;;;;30.27;27.61;99043.25;7389024;19;20022;-83
2024/03/12 03:59:53;;;;;;;7.38;2.40;;;;;;;30.24;27.44;99033.00;7388250;19;20025;-84
2024/03/12 04:02:21;;;;;;;10.98;3.90;;;;;;;30.24;27.50;99033.00;7388961;19;20018;-84
2024/03/12 04:04:47;;;;;;;10.90;3.05;;;;;;;30.21;27.25;99039.28;7387492;19;20502;-83
2024/03/12 04:07:13;;;;;;;15.52;5.05;;;;;;;30.61;26.96;99035.78;7389136;19;20019;-83
2024/03/12 04:09:39;;;;;;;15.32;3.40;;;;;;;30.64;27.21;99028.78;7390937;19;20018;-83
2024/03/12 04:12:06;;;;;;;11.75;3.70;;;;;;;30.22;27.32;99029.25;7390250;19;20035;-82
2024/03/12 04:14:32;;;;;;;9.75;5.00;;;;;;;29.89;27.66;99027.44;7390569;19;20017;-82
2024/03/12 04:16:58;;;;;;;9.93;3.33;;;;;;;30.46;27.37;99016.28;7393068;19;20351;-83
2024/03/12 04:19:24;;;;;;;11.00;3.13;;;;;;;30.46;27.42;99014.16;7389395;19;20019;-82
2024/03/12 04:21:50;;;;;;;11.98;4.60;;;;;;;30.58;27.22;99014.09;7390039;19;20050;-82
2024/03/12 04:24:16;;;;;;;10.27;3.78;;;;;;;30.52;27.33;99005.09;7387404;19;20015;-83
2024/03/12 04:26:45;;;;;;;8.95;2.92;;;;;;;30.40;27.37;99002.34;7393971;19;20011;-83
2024/03/12 04:29:12;;;;;;;12.77;2.97;;;;;;;30.52;27.26;99005.09;7389426;19;20015;-83
2024/03/12 04:31:39;;;;;;;11.35;4.03;;;;;;;31.72;26.46;98998.47;7390524;19;20014;-83
2024/03/12 04:34:08;;;;;;;10.32;3.10;;;;;;;31.86;26.53;99002.06;7387477;19;20018;-82
2024/03/12 04:36:35;;;;;;;20.42;4.35;;;;;;;30.27;27.56;99003.00;7390822;19;20018;-83
2024/03/12 04:39:30;;;;;;;5.15;2.72;;;;;;;29.82;28.34;99011.22;7388650;19;20022;-83
2024/03/12 04:41:59;;;;;;;11.20;3.55;;;;;;;30.01;27.93;99010.16;7390316;19;20021;-83
2024/03/12 04:44:26;;;;;;;17.85;3.42;;;;;;;29.90;28.32;99005.22;7387335;19;20109;-83
2024/03/12 04:46:52;;;;;;;8.32;3.88;;;;;;;30.07;28.10;99007.63;7391338;19;20025;-83
2024/03/12 04:49:18;;;;;;;11.95;2.92;;;;;;;29.72;28.09;99016.38;7392351;19;20010;-83
2024/03/12 04:51:44;;;;;;;3.60;2.28;;;;;;;30.25;27.80;99010.78;7388355;19;20483;-83
2024/03/12 04:54:11;;;;;;;6.97;2.88;;;;;;;29.76;28.03;99002.28;7386353;19;20027;-83
2024/03/12 04:56:37;;;;;;;7.28;2.00;;;;;;;29.57;28.21;99001.81;7387007;19;20025;-82
2024/03/12 04:59:03;;;;;;;9.10;3.63;;;;;;;29.41;28.03;98998.03;7396943;19;20011;-83
2024/03/12 05:01:29;;;;;;;12.48;3.72;;;;;;;29.45;28.63;98984.66;7397078;19;20022;-83
2024/03/12 05:03:55;;;;;;;4.55;2.00;;;;;;;29.48;28.20;98974.78;7394940;19;20015;-83
2024/03/12 05:06:21;;;;;;;10.80;3.38;;;;;;;29.51;28.50;98973.53;7398702;19;20348;-83
2024/03/12 05:08:48;;;;;;;3.13;2.13;;;;;;;29.33;28.59;98972.47;7396804;19;20033;-84
2024/03/12 05:11:14;;;;;;;13.23;4.28;;;;;;;29.14;28.90;98962.03;7395158;19;20007;-83
2024/03/12 05:13:43;;;;;;;2.97;2.58;;;;;;;29.14;28.62;98955.53;7395240;19;20063;-83
2024/03/12 05:16:09;;;;;;;6.38;2.25;;;;;;;29.11;28.88;98951.03;7398043;19;20032;-84
2024/03/12 05:18:35;;;;;;;9.13;3.97;;;;;;;29.12;29.07;98947.56;7396515;19;20010;-84
2024/03/12 05:21:02;;;;;;;14.48;2.92;;;;;;;29.54;28.65;98952.16;7394683;19;20011;-84
2024/03/12 05:23:28;;;;;;;8.27;4.50;;;;;;;29.11;28.75;98943.19;7395852;19;20037;-84
2024/03/12 05:25:54;;;;;;;7.22;2.45;;;;;;;28.98;29.14;98949.56;7396291;19;20527;-84
2024/03/12 05:28:21;;;;;;;1.58;1.40;;;;;;;29.02;29.19;98949.81;7392663;19;20039;-84
2024/03/12 05:30:48;;;;;;;7.70;2.78;;;;;;;29.18;29.08;98939.34;7393781;19;20019;-84
2024/03/12 05:33:15;;;;;;;7.88;3.90;;;;;;;28.99;29.02;98933.13;7395693;19;20046;-84
2024/03/12 05:35:47;;;;;;;14.13;2.80;;;;;;;29.38;28.85;98931.16;7391807;19;20030;-84
2024/03/12 05:49:08;;;;;;;14.95;3.63;;;;;;;28.22;29.97;98927.69;7395290;19;20019;-85
2024/03/12 05:51:37;;;;;;;7.50;1.00;;;;;;;29.07;29.12;98910.66;7399346;19;20022;-85
2024/03/12 05:54:07;;;;;;;4.88;1.92;;;;;;;29.97;28.59;98907.28;7393602;19;20018;-85
2024/03/12 05:56:37;;;;;;;13.57;3.05;;;;;;;29.43;29.33;98900.59;7394469;19;20479;-85
2024/03/12 05:59:04;;;;;;;5.35;2.70;;;;;;;30.40;28.08;98901.00;7393521;19;20018;-85
2024/03/12 06:01:30;;;;;;;2.95;2.10;;;;;;;28.64;29.90;98892.31;7394525;19;20019;-85
2024/03/12 06:03:57;;;;;;;2.00;1.38;;;;;;;29.31;29.53;98888.41;7394874;19;20035;-85
2024/03/12 06:06:23;;;;;;;12.05;2.55;;;;;;;30.21;28.61;98892.78;7391750;19;20034;-85
2024/03/12 06:08:49;;;;;;;4.97;2.50;;;;;;;30.23;28.56;98887.13;7393274;19;20334;-85
2024/03/12 06:11:16;;;;;;;8.35;2.33;;;;;;;30.06;28.51;98888.38;7395010;19;20030;-86
2024/03/12 06:13:43;;;;;;;4.90;1.80;;;;;;;29.97;28.72;98884.31;7394812;19;20018;-86
2024/03/12 06:16:11;;;;;;;11.48;2.22;;;;;;;29.36;29.58;98884.41;7397206;19;20018;-86
2024/03/12 06:18:37;;;;;;;4.03;1.95;;;;;;;28.90;29.81;98879.53;7392988;19;20022;-86
2024/03/12 06:21:05;;;;;;;6.78;2.33;;;;;;;30.25;28.72;98867.88;7392348;19;20018;-85
2024/03/12 06:23:31;;;;;;;5.05;1.60;;;;;;;30.42;28.92;98872.38;7393716;19;20126;-86
2024/03/12 06:25:57;;;;;;;7.85;2.20;;;;;;;30.38;28.99;98870.03;7393835;19;20025;-85
2024/03/12 06:28:27;;;;;;;7.30;2.15;;;;;;;30.27;28.83;98870.09;7392341;19;20021;-86
2024/03/12 06:30:53;;;;;;;4.85;2.17;;;;;;;29.66;29.41;98857.41;7394162;19;20039;-86
2024/03/12 06:33:19;;;;;;;5.88;1.80;;;;;;;29.73;29.13;98854.25;7394188;19;20486;-86
2024/03/12 06:35:47;;;;;;;10.63;3.42;;;;;;;28.93;30.28;98856.13;7391509;19;20050;-87
2024/03/12 06:38:20;;;;;;;1.58;0.90;;;;;;;28.76;30.21;98853.66;7396286;19;20117;-86
2024/03/12 06:40:48;;;;;;;7.97;2.67;;;;;;;28.26;30.93;98859.19;7392980;19;20437;-86
2024/03/12 06:43:17;;;;;;;15.90;3.42;;;;;;;29.97;29.54;98852.00;7394660;19;20508;-86
2024/03/12 06:45:44;;;;;;;7.68;3.13;;;;;;;29.07;30.25;98853.31;7392383;19;20018;-86
2024/03/12 06:48:10;;;;;;;1.02;0.55;;;;;;;28.71;30.55;98848.31;7392815;19;20035;-87
2024/03/12 06:50:37;;;;;;;7.05;1.95;;;;;;;28.78;30.69;98844.44;7397497;19;20022;-86
2024/03/12 06:53:05;;;;;;;5.35;1.55;;;;;;;28.70;30.90;98852.53;7392955;19;20115;-87
2024/03/12 06:55:32;;;;;;;6.57;2.42;;;;;;;28.68;30.76;98847.44;7389524;19;20345;-86
2024/03/12 06:58:07;;;;;;;10.35;2.85;;;;;;;28.68;30.64;98843.81;7392163;19;20021;-87
2024/03/12 07:00:44;;;;;;;9.23;2.33;;;;;;;28.64;31.03;98846.47;7391927;19;20023;-87
2024/03/12 07:03:12;;;;;;;21.63;2.10;;;;;;;28.91;31.13;98852.38;7392930;19;20348;-86
2024/03/12 07:05:43;;;;;;;2.00;1.80;;;;;;;29.01;30.65;98838.63;7392355;19;20015;-87
2024/03/12 07:08:10;;;;;;;;;;;;;;;29.22;30.87;98847.03;7391524;19;20018;-86
2024/03/12 07:10:40;;;;;;;2.47;1.95;;;;;;;29.29;30.45;98840.28;7391150;19;19930;-87
2024/03/12 07:13:09;;;;;;;3.70;2.45;;;;;;;29.31;30.65;98837.53;7390313;19;20014;-86
2024/03/12 07:15:39;;;;;;;1.55;0.90;;;;;;;30.04;30.64;98825.06;7392364;19;20349;-86
2024/03/12 07:18:06;;;;;;;3.58;1.33;;;;;;;30.64;29.74;98816.06;7392704;19;20019;-86
2024/03/12 07:20:34;;;;;;;6.15;1.83;;;;;;;31.34;28.80;98822.47;7389274;19;20089;-86
2024/03/12 07:23:04;;;;;;;1.88;0.63;;;;;;;31.94;28.64;98818.09;7391363;19;20025;-86
2024/03/12 07:25:30;;;;;;;1.42;1.33;;;;;;;31.79;28.44;98818.84;7389743;19;20014;-86
2024/03/12 07:28:07;;;;;;;3.33;1.65;;;;;;;31.98;28.73;98812.56;7388639;19;20489;-86
2024/03/12 07:30:34;;;;;;;5.40;2.00;;;;;;;32.05;28.52;98817.22;7392347;19;20032;-85
2024/03/12 07:33:04;;;;;;;5.50;1.05;;;;;;;32.20;28.69;98813.56;7392383;19;20011;-86
2024/03/12 07:35:33;;;;;;;2.38;1.25;;;;;;;32.21;28.47;98812.16;7390424;19;20010;-86
2024/03/12 07:38:00;;;;;;;4.30;1.25;;;;;;;31.88;28.32;98814.97;7393194;19;20018;-86
2024/03/12 07:40:26;;;;;;;3.72;1.55;;;;;;;31.97;28.39;98811.06;7392012;19;20043;-86
2024/03/12 07:42:52;;;;;;;1.90;1.33;;;;;;;31.70;28.73;98814.84;7392030;19;20018;-86
2024/03/12 07:45:19;;;;;;;0.70;0.70;;;;;;;31.58;28.65;98822.19;7392334;19;20015;-87
2024/03/12 07:47:45;;;;;;;2.10;1.10;;;;;;;31.76;28.57;98814.38;7390115;19;20547;-87
2024/03/12 07:50:13;;;;;;;0.88;0.85;;;;;;;31.54;28.50;98802.56;7394191;19;20030;-87
2024/03/12 07:52:39;;;;;;;3.88;0.60;;;;;;;31.12;29.09;98807.00;7390965;19;20018;-87
2024/03/12 07:55:06;;;;;;;7.85;0.60;;;;;;;31.10;29.30;98798.25;7390470;19;20397;-87
2024/03/12 07:57:32;;;;;;;1.80;0.93;;;;;;;31.23;29.54;98799.63;7389286;19;20073;-87
2024/03/12 07:59:59;;;;;;;2.92;0.85;;;;;;;31.21;29.39;98803.13;7392703;19;20025;-87
2024/03/12 08:02:25;;;;;;;4.15;1.98;;;;;;;31.20;29.12;98795.16;7389975;19;20364;-87
2024/03/12 08:04:51;;;;;;;3.05;1.75;;;;;;;31.16;29.29;98789.94;7391618;19;20019;-87
2024/03/12 08:07:21;;;;;;;0.35;0.32;;;;;;;31.14;28.93;98795.59;7389295;19;20022;-87
2024/03/12 08:09:50;;;;;;;1.85;0.68;;;;;;;31.00;29.46;98788.41;7393424;19;20018;-86
2024/03/12 08:12:17;;;;;;;2.92;0.95;;;;;;;31.11;28.83;98796.13;7390324;19;20015;-87
2024/03/12 08:14:44;;;;;;;14.45;1.75;;;;;;;31.14;29.02;98786.97;7390186;19;20539;-87
2024/03/12 08:17:13;;;;;;;0.73;0.45;;;;;;;30.86;29.25;98791.34;7394522;19;20029;-89
2024/03/12 08:19:40;;;;;;;1.35;0.80;;;;;;;31.36;28.67;98785.16;7391245;19;20491;-87
2024/03/12 08:22:08;;;;;;;2.55;0.93;;;;;;;31.99;28.84;98785.22;7390156;19;20349;-88
2024/03/12 08:24:37;;;;;;;3.03;1.17;;;;;;;32.37;28.57;98778.28;7389455;19;20006;-88
2024/03/12 08:27:04;;;;;;;2.08;1.15;;;;;;;32.44;28.53;98777.16;7390688;19;20090;-88
2024/03/12 08:29:31;;;;;;;0.65;0.50;;;;;;;32.05;28.22;98786.25;7391538;19;20015;-88
2024/03/12 08:31:58;;;;;;;2.17;1.05;;;;;;;32.15;28.26;98785.97;7388042;19;20014;-88
2024/03/12 08:34:27;;;;;;;0.40;0.30;;;;;;;32.24;28.24;98778.41;7395600;19;20035;-88
2024/03/12 08:36:55;;;;;;;2.38;0.70;;;;;;;32.40;28.30;98774.09;7396961;19;20078;-87
2024/03/12 08:39:22;;;;;;;0.95;0.65;;;;;;;32.54;27.92;98780.50;7398519;19;20018;-88
2024/03/12 08:41:48;;;;;;;2.28;0.90;;;;;;;32.34;28.31;98773.81;7397459;19;20014;-87
2024/03/12 08:44:14;;;;;;;1.15;1.05;;;;;;;32.53;28.28;98778.28;7396583;19;20393;-88
2024/03/12 08:46:41;;;;;;;6.93;1.55;;;;;;;32.56;28.02;98783.47;7401459;19;20411;-88
2024/03/12 08:49:10;;;;;;;1.27;0.73;;;;;;;32.69;27.95;98784.72;7397105;19;20082;-88
2024/03/12 08:51:39;;;;;;;1.60;0.88;;;;;;;32.92;27.92;98782.09;7396745;19;20073;-88
2024/03/12 08:54:06;;;;;;;0.55;0.55;;;;;;;32.84;28.05;98778.91;7395295;19;20015;-87
2024/03/12 08:56:35;;;;;;;3.50;1.05;;;;;;;32.85;28.19;98780.38;7395582;19;20022;-87
2024/03/12 08:59:01;;;;;;;1.85;0.65;;;;;;;32.89;28.14;98783.44;7395926;19;20018;-88
2024/03/12 09:01:28;;;;;;;1.05;0.77;;;;;;;32.95;27.96;98776.41;7397994;19;20027;-87
2024/03/12 09:03:54;;;;;;;0.40;0.20;;;;;;;32.26;28.70;98790.03;7395532;19;20476;-87
2024/03/12 09:06:20;;;;;;;0.40;0.35;;;;;;;32.27;28.80;98785.75;7400954;19;20027;-88
2024/03/12 09:08:49;;;;;;;1.63;0.55;;;;;;;32.00;29.20;98781.72;7396777;19;20042;-88
2024/03/12 09:11:18;;;;;;;1.48;0.45;;;;;;;32.16;29.15;98787.47;7394493;19;20026;-88
2024/03/12 09:13:47;;;;;;;0.20;0.10;;;;;;;32.05;28.75;98794.16;7397603;19;20007;-87
2024/03/12 09:16:14;;;;;;;0.43;0.43;;;;;;;32.65;28.77;98802.59;7397813;19;20041;-88
2024/03/12 09:18:44;;;;;;;0.52;0.52;;;;;;;32.50;28.94;98797.63;7396968;19;20021;-87
2024/03/12 09:21:15;;;;;;;0.47;0.47;;;;;;;32.64;28.98;98806.88;7395333;19;20014;-87
2024/03/12 09:23:42;;;;;;;0.68;0.50;;;;;;;32.57;29.12;98813.06;7395682;19;20020;-87
2024/03/12 09:26:08;;;;;;;0.70;0.30;;;;;;;32.83;28.96;98802.63;7400239;19;20022;-87
2024/03/12 09:28:36;;;;;;;0.47;0.30;;;;;;;32.56;29.10;98812.31;7392913;19;20089;-87
2024/03/12 09:31:08;;;;;;;2.45;0.77;;;;;;;32.59;29.03;98805.25;7394849;19;20026;-87
2024/03/12 09:33:35;;;;;;;0.57;0.40;;;;;;;32.93;29.01;98800.16;7395888;19;20019;-86
2024/03/12 09:36:01;;;;;;;1.48;1.13;;;;;;;33.42;28.07;98811.56;7398275;19;20018;-86
2024/03/12 09:38:27;;;;;;;0.40;0.30;;;;;;;32.71;28.96;98805.75;7398899;19;20027;-86
2024/03/12 09:40:59;;;;;;;1.45;0.65;;;;;;;33.17;28.96;98809.09;7396772;19;20022;-87
2024/03/12 09:43:32;;;;;;;0.73;0.35;;;;;;;33.55;28.69;98813.53;7394678;19;20519;-86
2024/03/12 09:46:01;;;;;;;2.78;1.10;;;;;;;33.85;28.51;98814.72;7397077;19;20022;-86
2024/03/12 09:48:27;;;;;;;2.60;1.25;;;;;;;34.07;28.15;98803.28;7393151;19;20110;-87
2024/03/12 09:50:55;;;;;;;6.82;0.80;;;;;;;33.34;28.75;98805.47;7396287;19;20053;-87
2024/03/12 09:53:23;;;;;;;4.68;0.75;;;;;;;33.06;29.12;98804.31;7396109;19;20027;-86
2024/03/12 09:55:50;;;;;;;1.60;0.73;;;;;;;33.19;28.87;98800.53;7391292;19;20082;-86
2024/03/12 09:58:16;;;;;;;1.55;0.63;;;;;;;33.41;28.78;98789.88;7394449;19;20010;-86
2024/03/12 10:00:43;;;;;;;0.40;0.25;;;;;;;33.18;28.87;98790.41;7393762;19;20098;-86
2024/03/12 10:03:09;;;;;;;1.40;1.02;;;;;;;33.01;28.98;98783.22;7392332;19;20018;-87
2024/03/12 10:05:37;;;;;;;2.10;0.60;;;;;;;31.07;31.17;98788.06;7394458;19;20022;-85
2024/03/12 10:08:08;;;;;;;0.75;0.60;;;;;;;31.41;30.61;98786.88;7391951;19;20041;-85
2024/03/12 10:10:45;;;;;;;1.38;0.98;;;;;;;30.93;31.80;98783.75;7394526;19;20016;-85
2024/03/12 10:13:15;;;;;;;0.47;0.28;;;;;;;31.57;31.38;98774.63;7392979;19;20392;-85
2024/03/12 10:15:59;;;;;;;3.17;0.70;;;;;;;32.36;30.33;98776.81;7392662;19;20019;-84
2024/03/12 10:18:30;;;;;;;4.50;0.60;;;;;;;32.66;30.26;98781.00;7393236;19;20018;-85
2024/03/12 10:21:00;;;;;;;1.58;0.68;;;;;;;33.43;29.77;98789.97;7395053;19;20022;-85
2024/03/12 10:23:27;;;;;;;0.88;0.60;;;;;;;33.50;29.92;98792.47;7394263;19;20055;-85
2024/03/12 10:26:12;;;;;;;2.10;0.70;;;;;;;33.72;29.53;98786.81;7392966;19;20022;-86
2024/03/12 10:28:40;;;;;;;2.78;0.77;;;;;;;33.78;29.18;98794.94;7391074;19;20472;-85
2024/03/12 10:31:11;;;;;;;1.38;0.93;;;;;;;34.17;28.88;98789.97;7392756;19;20014;-85
2024/03/12 10:33:37;;;;;;;;;;;;;;;33.25;29.79;98797.88;7398777;19;20103;-85
2024/03/12 10:36:04;;;;;;;1.00;0.43;;;;;;;33.22;30.02;98793.44;7390731;19;20333;-85
2024/03/12 10:38:35;;;;;;;2.97;1.23;;;;;;;32.40;30.66;98788.50;7390368;19;21294;-85
2024/03/12 10:41:18;;;;;;;3.10;1.10;;;;;;;32.27;31.16;98774.94;7389800;19;20385;-84
2024/03/12 10:43:46;;;;;;;0.77;0.75;;;;;;;32.84;30.63;98778.16;7389179;19;20018;-84
2024/03/12 10:46:21;;;;;;;5.00;0.88;;;;;;;32.69;31.44;98773.94;7395837;19;20015;-84
2024/03/12 10:48:48;;;;;;;1.55;0.70;;;;;;;33.24;31.76;98768.28;7393168;19;20028;-84
2024/03/12 10:51:16;;;;;;;1.85;0.85;;;;;;;33.71;31.08;98779.53;7391672;19;20018;-84
2024/03/12 10:53:46;;;;;;;3.15;1.33;;;;;;;34.30;31.30;98777.44;7390862;19;20041;-84
2024/03/12 10:56:12;;;;;;;2.70;0.88;;;;;;;34.02;31.75;98779.28;7391633;19;20014;-84
2024/03/12 10:58:39;;;;;;;3.67;0.77;;;;;;;34.30;31.88;98771.66;7390884;19;20468;-84
2024/03/12 11:01:07;;;;;;;3.17;0.80;;;;;;;34.45;31.84;98777.91;7392663;19;20010;-85
2024/03/12 11:03:34;;;;;;;1.75;0.95;;;;;;;34.88;31.24;98777.97;7391376;19;20052;-85
2024/03/12 11:06:01;;;;;;;0.73;0.60;;;;;;;34.89;31.49;98788.16;7392948;19;20035;-84
2024/03/12 11:08:27;;;;;;;1.17;0.55;;;;;;;35.34;31.07;98767.94;7390018;19;20022;-85
2024/03/12 11:10:53;;;;;;;0.88;0.60;;;;;;;35.20;31.37;98781.97;7386899;19;20368;-84
2024/03/12 11:13:20;;;;;;;0.80;0.15;;;;;;;35.43;31.34;98781.25;7386007;19;20094;-85
2024/03/12 11:15:46;;;;;;;1.77;0.68;;;;;;;35.18;31.83;98784.78;7386084;19;20021;-85
2024/03/12 11:18:14;;;;;;;2.00;0.80;;;;;;;35.24;31.79;98784.97;7390766;19;20097;-84
2024/03/12 11:20:41;;;;;;;0.82;0.40;;;;;;;35.70;31.66;98789.34;7386529;19;20494;-85
2024/03/12 11:23:08;;;;;;;0.98;0.47;;;;;;;35.65;31.33;98790.66;7389663;19;20042;-84
2024/03/12 11:25:38;;;;;;;0.10;0.00;;;;;;;36.18;30.93;98780.63;7388904;19;20018;-85
2024/03/12 11:28:21;;;;;;;0.70;0.43;;;;;;;36.37;30.56;98782.59;7388502;19;20038;-85
2024/03/12 11:30:59;;;;;;;1.88;0.40;;;;;;;36.15;30.88;98776.91;7396006;19;20029;-84
2024/03/12 11:33:41;;;;;;;0.65;0.32;;;;;;;36.33;30.62;98789.03;7391610;19;20073;-85
2024/03/12 11:36:32;;;;;;;0.73;0.10;;;;;;;36.36;30.65;98787.66;7392761;19;20021;-85
2024/03/12 11:39:11;;;;;;;0.40;0.22;;;;;;;36.62;30.67;98790.56;7391525;19;20011;-84
2024/03/12 11:41:59;;;;;;;0.10;0.10;;;;;;;36.69;30.77;98782.75;7395708;19;20078;-85
2024/03/12 11:44:48;;;;;;;0.70;0.60;;;;;;;37.15;30.45;98775.97;7391364;19;20019;-85
2024/03/12 11:47:52;;;;;;;0.80;0.50;;;;;;;37.27;30.25;98781.34;7396267;19;20039;-85